sensor_id;sensor_type;location;lat;lon;timestamp;pressure;altitude;pressure_sealevel;temperature;humidity
78615;BME280;67937;52.488;20.952;2023-03-01T00:01:45;102017.63;;;-3.35;80.22
78615;BME280;67937;52.488;20.952;2023-03-01T00:04:13;102008.86;;;-3.32;80.55
78615;BME280;67937;52.488;20.952;2023-03-01T00:06:42;102010.39;;;-3.32;80.73
78615;BME280;67937;52.488;20.952;2023-03-01T00:09:13;102011.77;;;-3.32;80.79
78615;BME280;67937;52.488;20.952;2023-03-01T00:11:42;102006.77;;;-3.36;80.84
78615;BME280;67937;52.488;20.952;2023-03-01T00:14:11;102006.92;;;-3.38;80.96
78615;BME280;67937;52.488;20.952;2023-03-01T00:16:41;102004.48;;;-3.43;80.72
78615;BME280;67937;52.488;20.952;2023-03-01T00:19:13;101997.38;;;-3.51;80.95
78615;BME280;67937;52.488;20.952;2023-03-01T00:21:41;102001.70;;;-3.48;81.01
78615;BME280;67937;52.488;20.952;2023-03-01T00:24:11;102004.45;;;-3.49;81.02
78615;BME280;67937;52.488;20.952;2023-03-01T00:26:40;102006.39;;;-3.45;81.09
78615;BME280;67937;52.488;20.952;2023-03-01T00:29:08;102001.70;;;-3.49;81.27
78615;BME280;67937;52.488;20.952;2023-03-01T00:31:36;102001.81;;;-3.59;81.38
78615;BME280;67937;52.488;20.952;2023-03-01T00:34:05;102001.98;;;-3.60;81.24
78615;BME280;67937;52.488;20.952;2023-03-01T00:36:36;101999.77;;;-3.52;80.88
78615;BME280;67937;52.488;20.952;2023-03-01T00:39:07;101999.63;;;-3.49;81.09
78615;BME280;67937;52.488;20.952;2023-03-01T00:41:37;101996.73;;;-3.40;81.00
78615;BME280;67937;52.488;20.952;2023-03-01T00:44:06;101993.98;;;-3.39;81.26
78615;BME280;67937;52.488;20.952;2023-03-01T00:46:34;101992.26;;;-3.39;81.56
78615;BME280;67937;52.488;20.952;2023-03-01T00:49:03;101986.89;;;-3.41;81.83
78615;BME280;67937;52.488;20.952;2023-03-01T00:51:31;101981.55;;;-3.43;82.19
78615;BME280;67937;52.488;20.952;2023-03-01T00:54:01;101982.70;;;-3.53;82.25
78615;BME280;67937;52.488;20.952;2023-03-01T00:56:30;101984.75;;;-3.56;82.22
78615;BME280;67937;52.488;20.952;2023-03-01T00:58:59;101988.35;;;-3.60;82.04
78615;BME280;67937;52.488;20.952;2023-03-01T01:01:29;101985.45;;;-3.53;81.89
78615;BME280;67937;52.488;20.952;2023-03-01T01:04:04;101979.83;;;-3.40;82.13
78615;BME280;67937;52.488;20.952;2023-03-01T01:06:38;101981.19;;;-3.44;82.02
78615;BME280;67937;52.488;20.952;2023-03-01T01:09:10;101980.09;;;-3.55;81.94
78615;BME280;67937;52.488;20.952;2023-03-01T01:11:45;101982.15;;;-3.60;82.34
78615;BME280;67937;52.488;20.952;2023-03-01T01:14:14;101985.96;;;-3.58;82.14
78615;BME280;67937;52.488;20.952;2023-03-01T01:16:43;101983.59;;;-3.47;81.93
78615;BME280;67937;52.488;20.952;2023-03-01T01:19:12;101975.98;;;-3.48;81.78
78615;BME280;67937;52.488;20.952;2023-03-01T01:21:40;101970.27;;;-3.55;81.87
78615;BME280;67937;52.488;20.952;2023-03-01T01:24:09;101973.20;;;-3.56;82.22
78615;BME280;67937;52.488;20.952;2023-03-01T01:26:38;101972.34;;;-3.55;82.39
78615;BME280;67937;52.488;20.952;2023-03-01T01:29:07;101974.73;;;-3.59;82.05
78615;BME280;67937;52.488;20.952;2023-03-01T01:31:37;101977.70;;;-3.54;82.25
78615;BME280;67937;52.488;20.952;2023-03-01T01:34:08;101970.64;;;-3.51;82.25
78615;BME280;67937;52.488;20.952;2023-03-01T01:36:36;101960.45;;;-3.49;82.10
78615;BME280;67937;52.488;20.952;2023-03-01T01:39:05;101957.70;;;-3.48;82.62
78615;BME280;67937;52.488;20.952;2023-03-01T01:41:33;101955.76;;;-3.58;82.58
78615;BME280;67937;52.488;20.952;2023-03-01T01:44:28;101959.04;;;-3.59;82.86
78615;BME280;67937;52.488;20.952;2023-03-01T01:47:20;101956.30;;;-3.51;82.77
78615;BME280;67937;52.488;20.952;2023-03-01T01:49:55;101950.61;;;-3.54;83.11
78615;BME280;67937;52.488;20.952;2023-03-01T01:52:27;101956.95;;;-3.62;83.16
78615;BME280;67937;52.488;20.952;2023-03-01T01:55:07;101953.31;;;-3.66;82.92
78615;BME280;67937;52.488;20.952;2023-03-01T01:57:40;101948.14;;;-3.64;83.12
78615;BME280;67937;52.488;20.952;2023-03-01T02:00:16;101945.03;;;-3.67;82.77
78615;BME280;67937;52.488;20.952;2023-03-01T02:02:46;101939.34;;;-3.66;82.85
78615;BME280;67937;52.488;20.952;2023-03-01T02:08:03;101930.09;;;-3.49;82.37
78615;BME280;67937;52.488;20.952;2023-03-01T02:10:33;101934.73;;;-3.57;82.29
78615;BME280;67937;52.488;20.952;2023-03-01T02:13:02;101933.84;;;-3.60;82.49
78615;BME280;67937;52.488;20.952;2023-03-01T02:15:33;101930.92;;;-3.55;82.57
78615;BME280;67937;52.488;20.952;2023-03-01T02:18:02;101925.43;;;-3.52;82.65
78615;BME280;67937;52.488;20.952;2023-03-01T02:23:03;101917.17;;;-3.46;82.53
78615;BME280;67937;52.488;20.952;2023-03-01T02:30:46;101911.63;;;-3.50;81.49
78615;BME280;67937;52.488;20.952;2023-03-01T02:33:29;101906.61;;;-3.52;81.49
78615;BME280;67937;52.488;20.952;2023-03-01T02:36:00;101909.25;;;-3.39;80.99
78615;BME280;67937;52.488;20.952;2023-03-01T02:38:29;101910.80;;;-3.41;81.96
78615;BME280;67937;52.488;20.952;2023-03-01T02:40:59;101912.00;;;-3.39;82.54
78615;BME280;67937;52.488;20.952;2023-03-01T02:43:31;101902.84;;;-3.43;82.38
78615;BME280;67937;52.488;20.952;2023-03-01T02:46:23;101896.95;;;-3.51;82.61
78615;BME280;67937;52.488;20.952;2023-03-01T02:48:54;101888.17;;;-3.47;83.14
78615;BME280;67937;52.488;20.952;2023-03-01T02:56:34;101884.81;;;-3.74;83.35
78615;BME280;67937;52.488;20.952;2023-03-01T02:59:02;101884.81;;;-3.70;83.42
78615;BME280;67937;52.488;20.952;2023-03-01T03:01:31;101887.78;;;-3.61;83.07
78615;BME280;67937;52.488;20.952;2023-03-01T03:04:09;101888.14;;;-3.57;82.75
78615;BME280;67937;52.488;20.952;2023-03-01T03:06:38;101889.14;;;-3.65;82.70
78615;BME280;67937;52.488;20.952;2023-03-01T03:09:06;101890.85;;;-3.73;83.64
78615;BME280;67937;52.488;20.952;2023-03-01T03:11:34;101886.21;;;-3.68;83.34
78615;BME280;67937;52.488;20.952;2023-03-01T03:14:03;101889.67;;;-3.61;83.15
78615;BME280;67937;52.488;20.952;2023-03-01T03:16:31;101892.78;;;-3.61;82.39
78615;BME280;67937;52.488;20.952;2023-03-01T03:18:59;101888.48;;;-3.55;82.32
78615;BME280;67937;52.488;20.952;2023-03-01T03:21:32;101882.65;;;-3.48;82.35
78615;BME280;67937;52.488;20.952;2023-03-01T03:24:00;101887.48;;;-3.49;82.20
78615;BME280;67937;52.488;20.952;2023-03-01T03:26:29;101886.08;;;-3.56;82.56
78615;BME280;67937;52.488;20.952;2023-03-01T03:28:58;101891.42;;;-3.58;82.96
78615;BME280;67937;52.488;20.952;2023-03-01T03:31:27;101889.35;;;-3.54;82.99
78615;BME280;67937;52.488;20.952;2023-03-01T03:33:55;101879.04;;;-3.40;82.77
78615;BME280;67937;52.488;20.952;2023-03-01T03:36:25;101867.32;;;-3.37;82.78
78615;BME280;67937;52.488;20.952;2023-03-01T03:38:53;101861.95;;;-3.45;83.30
78615;BME280;67937;52.488;20.952;2023-03-01T03:41:21;101854.69;;;-3.47;83.42
78615;BME280;67937;52.488;20.952;2023-03-01T03:43:50;101849.52;;;-3.53;83.56
78615;BME280;67937;52.488;20.952;2023-03-01T03:46:18;101853.14;;;-3.49;83.59
78615;BME280;67937;52.488;20.952;2023-03-01T03:48:46;101847.79;;;-3.50;83.51
78615;BME280;67937;52.488;20.952;2023-03-01T03:51:17;101854.84;;;-3.60;83.42
78615;BME280;67937;52.488;20.952;2023-03-01T03:53:45;101856.56;;;-3.62;83.11
78615;BME280;67937;52.488;20.952;2023-03-01T03:56:13;101856.06;;;-3.55;82.71
78615;BME280;67937;52.488;20.952;2023-03-01T03:58:42;101857.80;;;-3.41;82.56
78615;BME280;67937;52.488;20.952;2023-03-01T04:01:10;101860.39;;;-3.46;82.51
78615;BME280;67937;52.488;20.952;2023-03-01T04:03:38;101863.32;;;-3.50;82.36
78615;BME280;67937;52.488;20.952;2023-03-01T04:06:08;101864.36;;;-3.43;83.03
78615;BME280;67937;52.488;20.952;2023-03-01T04:08:36;101864.20;;;-3.43;83.33
78615;BME280;67937;52.488;20.952;2023-03-01T04:11:05;101857.14;;;-3.36;83.22
78615;BME280;67937;52.488;20.952;2023-03-01T04:13:47;101849.04;;;-3.32;82.64
78615;BME280;67937;52.488;20.952;2023-03-01T04:16:16;101845.73;;;-3.43;82.48
78615;BME280;67937;52.488;20.952;2023-03-01T04:18:44;101838.68;;;-3.36;82.75
78615;BME280;67937;52.488;20.952;2023-03-01T04:21:13;101836.09;;;-3.34;82.91
78615;BME280;67937;52.488;20.952;2023-03-01T04:23:41;101832.11;;;-3.43;83.10
78615;BME280;67937;52.488;20.952;2023-03-01T04:26:09;101826.77;;;-3.30;83.29
78615;BME280;67937;52.488;20.952;2023-03-01T04:28:39;101822.64;;;-3.25;82.92
78615;BME280;67937;52.488;20.952;2023-03-01T04:31:10;101816.23;;;-3.29;82.93
78615;BME280;67937;52.488;20.952;2023-03-01T04:33:46;101818.30;;;-3.38;83.33
78615;BME280;67937;52.488;20.952;2023-03-01T04:36:16;101817.27;;;-3.48;83.49
78615;BME280;67937;52.488;20.952;2023-03-01T04:38:45;101814.87;;;-3.38;83.56
78615;BME280;67937;52.488;20.952;2023-03-01T04:41:17;101820.55;;;-3.39;83.33
78615;BME280;67937;52.488;20.952;2023-03-01T04:43:45;101820.71;;;-3.43;83.26
78615;BME280;67937;52.488;20.952;2023-03-01T04:46:18;101815.55;;;-3.41;83.23
78615;BME280;67937;52.488;20.952;2023-03-01T04:48:47;101810.73;;;-3.39;83.47
78615;BME280;67937;52.488;20.952;2023-03-01T04:51:16;101805.87;;;-3.44;83.23
78615;BME280;67937;52.488;20.952;2023-03-01T04:53:45;101810.36;;;-3.50;83.46
78615;BME280;67937;52.488;20.952;2023-03-01T04:56:13;101815.00;;;-3.58;83.75
78615;BME280;67937;52.488;20.952;2023-03-01T04:58:41;101817.60;;;-3.48;83.64
78615;BME280;67937;52.488;20.952;2023-03-01T05:01:14;101815.89;;;-3.39;83.44
78615;BME280;67937;52.488;20.952;2023-03-01T05:03:47;101813.98;;;-3.36;82.97
78615;BME280;67937;52.488;20.952;2023-03-01T05:06:17;101816.56;;;-3.44;83.14
78615;BME280;67937;52.488;20.952;2023-03-01T05:08:46;101821.56;;;-3.52;82.93
78615;BME280;67937;52.488;20.952;2023-03-01T05:11:14;101823.48;;;-3.46;83.25
78615;BME280;67937;52.488;20.952;2023-03-01T05:13:42;101825.19;;;-3.50;83.55
78615;BME280;67937;52.488;20.952;2023-03-01T05:16:10;101823.48;;;-3.44;83.18
78615;BME280;67937;52.488;20.952;2023-03-01T05:18:40;101822.27;;;-3.45;83.35
78615;BME280;67937;52.488;20.952;2023-03-01T05:21:13;101822.25;;;-3.51;83.69
78615;BME280;67937;52.488;20.952;2023-03-01T05:23:42;101821.05;;;-3.47;83.30
78615;BME280;67937;52.488;20.952;2023-03-01T05:26:10;101824.85;;;-3.51;83.17
78615;BME280;67937;52.488;20.952;2023-03-01T05:28:39;101831.90;;;-3.56;83.52
78615;BME280;67937;52.488;20.952;2023-03-01T05:31:08;101834.33;;;-3.54;83.28
78615;BME280;67937;52.488;20.952;2023-03-01T05:33:38;101835.02;;;-3.47;83.21
78615;BME280;67937;52.488;20.952;2023-03-01T05:36:07;101837.45;;;-3.45;83.39
78615;BME280;67937;52.488;20.952;2023-03-01T05:38:36;101844.17;;;-3.46;83.58
78615;BME280;67937;52.488;20.952;2023-03-01T05:41:05;101844.17;;;-3.49;83.72
78615;BME280;67937;52.488;20.952;2023-03-01T05:43:33;101844.52;;;-3.48;83.99
78615;BME280;67937;52.488;20.952;2023-03-01T05:46:01;101842.46;;;-3.42;83.57
78615;BME280;67937;52.488;20.952;2023-03-01T05:48:29;101842.98;;;-3.44;83.46
78615;BME280;67937;52.488;20.952;2023-03-01T05:50:59;101845.73;;;-3.44;83.76
78615;BME280;67937;52.488;20.952;2023-03-01T05:53:28;101845.75;;;-3.38;83.56
78615;BME280;67937;52.488;20.952;2023-03-01T05:55:56;101848.84;;;-3.35;83.54
78615;BME280;67937;52.488;20.952;2023-03-01T05:58:24;101853.00;;;-3.33;83.57
78615;BME280;67937;52.488;20.952;2023-03-01T06:00:53;101853.17;;;-3.29;83.26
78615;BME280;67937;52.488;20.952;2023-03-01T06:03:21;101850.24;;;-3.29;83.24
78615;BME280;67937;52.488;20.952;2023-03-01T06:05:55;101852.48;;;-3.29;83.60
78615;BME280;67937;52.488;20.952;2023-03-01T06:08:24;101856.46;;;-3.28;83.44
78615;BME280;67937;52.488;20.952;2023-03-01T06:10:53;101854.58;;;-3.25;83.64
78615;BME280;67937;52.488;20.952;2023-03-01T06:13:23;101849.57;;;-3.19;83.32
78615;BME280;67937;52.488;20.952;2023-03-01T06:15:51;101849.57;;;-3.16;83.35
78615;BME280;67937;52.488;20.952;2023-03-01T06:18:20;101844.73;;;-3.14;83.47
78615;BME280;67937;52.488;20.952;2023-03-01T06:20:55;101845.45;;;-3.06;83.38
78615;BME280;67937;52.488;20.952;2023-03-01T06:23:24;101844.91;;;-3.00;83.09
78615;BME280;67937;52.488;20.952;2023-03-01T06:25:52;101838.18;;;-2.86;82.75
78615;BME280;67937;52.488;20.952;2023-03-01T06:28:21;101847.67;;;-2.79;82.70
78615;BME280;67937;52.488;20.952;2023-03-01T06:30:50;101847.16;;;-2.75;82.30
78615;BME280;67937;52.488;20.952;2023-03-01T06:33:19;101846.11;;;-2.70;82.26
78615;BME280;67937;52.488;20.952;2023-03-01T06:35:50;101846.45;;;-2.71;82.21
78615;BME280;67937;52.488;20.952;2023-03-01T06:38:19;101848.70;;;-2.63;82.30
78615;BME280;67937;52.488;20.952;2023-03-01T06:40:52;101839.18;;;-2.56;81.88
78615;BME280;67937;52.488;20.952;2023-03-01T06:43:22;101842.45;;;-2.49;81.57
78615;BME280;67937;52.488;20.952;2023-03-01T06:45:51;101843.81;;;-2.36;81.44
78615;BME280;67937;52.488;20.952;2023-03-01T06:48:19;101847.09;;;-2.36;81.58
78615;BME280;67937;52.488;20.952;2023-03-01T06:50:47;101854.00;;;-2.32;81.40
78615;BME280;67937;52.488;20.952;2023-03-01T06:53:15;101853.45;;;-2.24;81.06
78615;BME280;67937;52.488;20.952;2023-03-01T06:55:43;101853.44;;;-2.19;81.38
78615;BME280;67937;52.488;20.952;2023-03-01T06:58:12;101847.86;;;-2.07;81.17
78615;BME280;67937;52.488;20.952;2023-03-01T07:00:40;101851.27;;;-1.96;80.98
78615;BME280;67937;52.488;20.952;2023-03-01T07:03:09;101847.22;;;-1.76;80.38
78615;BME280;67937;52.488;20.952;2023-03-01T07:05:38;101841.98;;;-1.65;79.56
78615;BME280;67937;52.488;20.952;2023-03-01T07:08:06;101838.48;;;-1.62;79.38
78615;BME280;67937;52.488;20.952;2023-03-01T07:10:34;101838.30;;;-1.59;79.22
78615;BME280;67937;52.488;20.952;2023-03-01T07:13:02;101835.52;;;-1.59;79.12
78615;BME280;67937;52.488;20.952;2023-03-01T07:15:33;101840.34;;;-1.53;79.57
78615;BME280;67937;52.488;20.952;2023-03-01T07:18:01;101839.75;;;-1.41;79.10
78615;BME280;67937;52.488;20.952;2023-03-01T07:20:29;101826.20;;;-1.33;78.82
78615;BME280;67937;52.488;20.952;2023-03-01T07:22:57;101832.39;;;-1.28;78.72
78615;BME280;67937;52.488;20.952;2023-03-01T07:25:26;101836.16;;;-1.24;78.65
78615;BME280;67937;52.488;20.952;2023-03-01T07:27:54;101834.16;;;-1.09;78.43
78615;BME280;67937;52.488;20.952;2023-03-01T07:30:22;101839.13;;;-1.00;78.04
78615;BME280;67937;52.488;20.952;2023-03-01T07:32:52;101841.61;;;-1.09;78.32
78615;BME280;67937;52.488;20.952;2023-03-01T07:35:22;101851.16;;;-0.91;77.90
78615;BME280;67937;52.488;20.952;2023-03-01T07:37:50;101847.98;;;-0.83;78.23
78615;BME280;67937;52.488;20.952;2023-03-01T07:40:18;101843.73;;;-0.75;77.47
78615;BME280;67937;52.488;20.952;2023-03-01T07:42:46;101842.45;;;-0.64;77.73
78615;BME280;67937;52.488;20.952;2023-03-01T07:45:15;101843.08;;;-0.42;77.09
78615;BME280;67937;52.488;20.952;2023-03-01T07:47:43;101842.63;;;-0.33;77.63
78615;BME280;67937;52.488;20.952;2023-03-01T07:50:11;101839.56;;;-0.07;76.85
78615;BME280;67937;52.488;20.952;2023-03-01T07:52:40;101844.90;;;-0.02;77.13
78615;BME280;67937;52.488;20.952;2023-03-01T07:55:08;101844.80;;;0.06;77.03
78615;BME280;67937;52.488;20.952;2023-03-01T07:57:36;101841.44;;;0.25;76.59
78615;BME280;67937;52.488;20.952;2023-03-01T08:00:05;101838.09;;;0.29;76.50
78615;BME280;67937;52.488;20.952;2023-03-01T08:02:33;101837.34;;;0.45;76.18
78615;BME280;67937;52.488;20.952;2023-03-01T08:05:02;101834.92;;;0.55;75.53
78615;BME280;67937;52.488;20.952;2023-03-01T08:07:30;101837.55;;;0.55;75.94
78615;BME280;67937;52.488;20.952;2023-03-01T08:09:58;101835.61;;;0.57;76.14
78615;BME280;67937;52.488;20.952;2023-03-01T08:12:26;101831.17;;;0.63;76.36
78615;BME280;67937;52.488;20.952;2023-03-01T08:14:55;101833.48;;;0.71;76.18
78615;BME280;67937;52.488;20.952;2023-03-01T08:17:23;101838.50;;;0.84;76.04
78615;BME280;67937;52.488;20.952;2023-03-01T08:19:51;101838.27;;;0.89;76.14
78615;BME280;67937;52.488;20.952;2023-03-01T08:22:20;101836.34;;;1.10;75.49
78615;BME280;67937;52.488;20.952;2023-03-01T08:24:48;101833.48;;;1.26;75.27
78615;BME280;67937;52.488;20.952;2023-03-01T08:27:16;101833.78;;;1.38;75.01
78615;BME280;67937;52.488;20.952;2023-03-01T08:29:45;101828.15;;;1.69;74.20
78615;BME280;67937;52.488;20.952;2023-03-01T08:32:13;101829.88;;;1.87;73.51
78615;BME280;67937;52.488;20.952;2023-03-01T08:34:41;101829.21;;;1.95;73.82
78615;BME280;67937;52.488;20.952;2023-03-01T08:37:09;101833.05;;;2.02;73.75
78615;BME280;67937;52.488;20.952;2023-03-01T08:39:37;101832.43;;;2.15;73.33
78615;BME280;67937;52.488;20.952;2023-03-01T08:42:05;101832.98;;;2.23;73.58
78615;BME280;67937;52.488;20.952;2023-03-01T08:44:34;101832.73;;;2.34;73.49
78615;BME280;67937;52.488;20.952;2023-03-01T08:47:02;101830.86;;;2.48;73.10
78615;BME280;67937;52.488;20.952;2023-03-01T08:49:31;101828.32;;;2.52;72.24
78615;BME280;67937;52.488;20.952;2023-03-01T08:52:01;101821.85;;;2.61;72.56
78615;BME280;67937;52.488;20.952;2023-03-01T08:54:30;101824.36;;;2.73;71.39
78615;BME280;67937;52.488;20.952;2023-03-01T08:57:01;101827.55;;;2.71;71.77
78615;BME280;67937;52.488;20.952;2023-03-01T08:59:29;101826.79;;;2.67;72.17
78615;BME280;67937;52.488;20.952;2023-03-01T09:02:03;101830.63;;;2.74;72.64
78615;BME280;67937;52.488;20.952;2023-03-01T09:04:31;101831.47;;;2.82;72.46
78615;BME280;67937;52.488;20.952;2023-03-01T09:06:59;101824.80;;;2.91;72.11
78615;BME280;67937;52.488;20.952;2023-03-01T09:09:28;101820.78;;;2.92;72.38
78615;BME280;67937;52.488;20.952;2023-03-01T09:11:56;101814.21;;;2.97;71.72
78615;BME280;67937;52.488;20.952;2023-03-01T09:14:24;101812.80;;;2.90;71.51
78615;BME280;67937;52.488;20.952;2023-03-01T09:16:52;101816.85;;;2.82;72.18
78615;BME280;67937;52.488;20.952;2023-03-01T09:19:21;101813.89;;;2.89;72.57
78615;BME280;67937;52.488;20.952;2023-03-01T09:21:49;101804.77;;;2.98;72.43
78615;BME280;67937;52.488;20.952;2023-03-01T09:24:22;101806.33;;;3.12;72.28
78615;BME280;67937;52.488;20.952;2023-03-01T09:26:53;101803.11;;;3.35;71.26
78615;BME280;67937;52.488;20.952;2023-03-01T09:29:23;101805.23;;;3.28;70.86
78615;BME280;67937;52.488;20.952;2023-03-01T09:31:51;101800.98;;;3.29;70.70
78615;BME280;67937;52.488;20.952;2023-03-01T09:34:22;101798.48;;;3.18;71.75
78615;BME280;67937;52.488;20.952;2023-03-01T09:36:50;101798.34;;;3.50;70.73
78615;BME280;67937;52.488;20.952;2023-03-01T09:39:19;101794.77;;;3.47;71.18
78615;BME280;67937;52.488;20.952;2023-03-01T09:41:53;101790.63;;;3.51;71.22
78615;BME280;67937;52.488;20.952;2023-03-01T09:47:25;101783.65;;;3.58;70.60
78615;BME280;67937;52.488;20.952;2023-03-01T09:50:16;101780.50;;;3.58;70.92
78615;BME280;67937;52.488;20.952;2023-03-01T09:53:07;101779.61;;;3.65;71.18
78615;BME280;67937;52.488;20.952;2023-03-01T09:55:50;101779.95;;;3.71;70.76
78615;BME280;67937;52.488;20.952;2023-03-01T09:58:53;101771.61;;;3.70;70.84
78615;BME280;67937;52.488;20.952;2023-03-01T10:01:38;101772.00;;;3.68;70.48
78615;BME280;67937;52.488;20.952;2023-03-01T10:09:34;101770.13;;;3.85;70.95
78615;BME280;67937;52.488;20.952;2023-03-01T10:12:06;101765.33;;;4.06;71.24
78615;BME280;67937;52.488;20.952;2023-03-01T10:14:42;101760.70;;;4.14;70.94
78615;BME280;67937;52.488;20.952;2023-03-01T10:17:26;101755.71;;;4.23;71.07
78615;BME280;67937;52.488;20.952;2023-03-01T10:20:05;101751.35;;;4.29;70.13
78615;BME280;67937;52.488;20.952;2023-03-01T10:22:38;101742.60;;;4.34;70.01
78615;BME280;67937;52.488;20.952;2023-03-01T10:25:13;101743.68;;;4.39;69.80
78615;BME280;67937;52.488;20.952;2023-03-01T10:27:53;101742.77;;;4.46;69.36
78615;BME280;67937;52.488;20.952;2023-03-01T10:30:40;101748.02;;;4.46;69.47
78615;BME280;67937;52.488;20.952;2023-03-01T10:33:43;101744.55;;;4.50;69.36
78615;BME280;67937;52.488;20.952;2023-03-01T10:36:11;101741.42;;;4.66;69.26
78615;BME280;67937;52.488;20.952;2023-03-01T10:38:54;101740.88;;;4.72;69.19
78615;BME280;67937;52.488;20.952;2023-03-01T10:41:26;101743.36;;;4.82;68.60
78615;BME280;67937;52.488;20.952;2023-03-01T10:43:56;101745.67;;;4.85;69.21
78615;BME280;67937;52.488;20.952;2023-03-01T10:46:27;101741.94;;;4.92;69.21
78615;BME280;67937;52.488;20.952;2023-03-01T10:49:12;101742.14;;;5.02;69.14
78615;BME280;67937;52.488;20.952;2023-03-01T10:51:44;101741.88;;;5.15;68.51
78615;BME280;67937;52.488;20.952;2023-03-01T10:54:22;101740.23;;;5.22;68.65
78615;BME280;67937;52.488;20.952;2023-03-01T10:56:54;101741.19;;;5.34;68.35
78615;BME280;67937;52.488;20.952;2023-03-01T10:59:34;101740.48;;;5.44;68.05
78615;BME280;67937;52.488;20.952;2023-03-01T11:02:28;101733.30;;;5.44;67.94
78615;BME280;67937;52.488;20.952;2023-03-01T11:05:24;101729.02;;;5.47;68.47
78615;BME280;67937;52.488;20.952;2023-03-01T11:07:54;101724.75;;;5.53;68.22
78615;BME280;67937;52.488;20.952;2023-03-01T11:10:33;101725.91;;;5.60;68.74
78615;BME280;67937;52.488;20.952;2023-03-01T11:13:15;101724.98;;;5.61;69.12
78615;BME280;67937;52.488;20.952;2023-03-01T11:15:58;101722.73;;;5.56;69.53
78615;BME280;67937;52.488;20.952;2023-03-01T11:18:29;101720.02;;;5.58;69.70
78615;BME280;67937;52.488;20.952;2023-03-01T11:20:59;101718.54;;;5.65;70.13
78615;BME280;67937;52.488;20.952;2023-03-01T11:23:30;101725.60;;;5.59;70.18
78615;BME280;67937;52.488;20.952;2023-03-01T11:26:02;101725.88;;;5.46;70.06
78615;BME280;67937;52.488;20.952;2023-03-01T11:28:34;101721.90;;;5.45;69.99
78615;BME280;67937;52.488;20.952;2023-03-01T11:31:08;101722.69;;;5.38;70.45
78615;BME280;67937;52.488;20.952;2023-03-01T11:33:48;101728.02;;;5.26;70.93
78615;BME280;67937;52.488;20.952;2023-03-01T11:36:28;101726.96;;;5.46;70.55
78615;BME280;67937;52.488;20.952;2023-03-01T11:39:10;101727.25;;;5.71;70.34
78615;BME280;67937;52.488;20.952;2023-03-01T11:41:40;101721.43;;;6.04;68.39
78615;BME280;67937;52.488;20.952;2023-03-01T11:44:17;101726.23;;;5.84;69.31
78615;BME280;67937;52.488;20.952;2023-03-01T11:47:16;101722.92;;;6.02;69.58
78615;BME280;67937;52.488;20.952;2023-03-01T11:50:11;101724.41;;;6.27;69.23
78615;BME280;67937;52.488;20.952;2023-03-01T11:53:49;101719.66;;;6.23;68.59
78615;BME280;67937;52.488;20.952;2023-03-01T12:07:18;101708.84;;;7.22;68.07
78615;BME280;67937;52.488;20.952;2023-03-01T12:15:31;101698.87;;;7.95;65.85
78615;BME280;67937;52.488;20.952;2023-03-01T12:21:02;101689.23;;;8.24;64.35
78615;BME280;67937;52.488;20.952;2023-03-01T12:26:30;101689.66;;;8.30;64.02
78615;BME280;67937;52.488;20.952;2023-03-01T12:50:51;101671.66;;;8.41;62.37
78615;BME280;67937;52.488;20.952;2023-03-01T12:53:26;101670.86;;;8.07;63.23
78615;BME280;67937;52.488;20.952;2023-03-01T12:56:00;101669.52;;;7.91;62.95
78615;BME280;67937;52.488;20.952;2023-03-01T13:11:57;101669.49;;;7.23;64.65
78615;BME280;67937;52.488;20.952;2023-03-01T13:16:54;101667.75;;;7.23;64.03
78615;BME280;67937;52.488;20.952;2023-03-01T13:19:28;101668.95;;;7.03;65.17
78615;BME280;67937;52.488;20.952;2023-03-01T13:21:59;101670.69;;;7.12;65.01
78615;BME280;67937;52.488;20.952;2023-03-01T13:29:58;101669.61;;;7.12;65.66
78615;BME280;67937;52.488;20.952;2023-03-01T13:32:32;101660.19;;;7.19;64.64
78615;BME280;67937;52.488;20.952;2023-03-01T13:37:45;101657.45;;;7.09;65.72
78615;BME280;67937;52.488;20.952;2023-03-01T13:42:54;101650.55;;;7.07;66.04
78615;BME280;67937;52.488;20.952;2023-03-01T13:48:52;101646.01;;;6.98;66.23
78615;BME280;67937;52.488;20.952;2023-03-01T13:51:02;101638.62;;;6.99;66.23
78615;BME280;67937;52.488;20.952;2023-03-01T13:53:39;101637.15;;;6.96;66.44
78615;BME280;67937;52.488;20.952;2023-03-01T13:56:13;101639.64;;;6.96;66.48
78615;BME280;67937;52.488;20.952;2023-03-01T13:58:52;101635.26;;;6.95;66.23
78615;BME280;67937;52.488;20.952;2023-03-01T14:01:22;101634.09;;;6.94;66.08
78615;BME280;67937;52.488;20.952;2023-03-01T14:03:50;101637.16;;;6.96;66.30
78615;BME280;67937;52.488;20.952;2023-03-01T14:06:30;101628.42;;;6.83;66.43
78615;BME280;67937;52.488;20.952;2023-03-01T14:09:14;101630.95;;;6.77;66.76
78615;BME280;67937;52.488;20.952;2023-03-01T14:22:45;101622.54;;;6.53;66.60
78615;BME280;67937;52.488;20.952;2023-03-01T14:28:14;101619.40;;;6.48;66.82
78615;BME280;67937;52.488;20.952;2023-03-01T14:30:46;101612.89;;;6.44;66.92
78615;BME280;67937;52.488;20.952;2023-03-01T14:33:25;101606.61;;;6.56;66.98
78615;BME280;67937;52.488;20.952;2023-03-01T14:36:05;101598.71;;;6.56;67.04
78615;BME280;67937;52.488;20.952;2023-03-01T14:41:18;101593.90;;;6.42;67.43
78615;BME280;67937;52.488;20.952;2023-03-01T14:43:55;101593.66;;;6.31;67.87
78615;BME280;67937;52.488;20.952;2023-03-01T14:46:39;101589.77;;;6.28;67.84
78615;BME280;67937;52.488;20.952;2023-03-01T14:49:17;101588.61;;;6.17;68.10
78615;BME280;67937;52.488;20.952;2023-03-01T14:51:59;101587.73;;;6.10;68.46
78615;BME280;67937;52.488;20.952;2023-03-01T14:54:43;101583.50;;;6.10;68.52
78615;BME280;67937;52.488;20.952;2023-03-01T14:57:21;101587.11;;;6.03;68.67
78615;BME280;67937;52.488;20.952;2023-03-01T14:59:52;101592.73;;;5.94;68.83
78615;BME280;67937;52.488;20.952;2023-03-01T15:02:22;101591.34;;;5.98;68.76